Terminal Aerodrome Forecast
Issued by NWS Portland, ME

Home | Current Version | Previous Version | Text Only | Print | Product List | Glossary On
Versions: 1 2 3 4 5 6 7 8 9 10 11 12 13 14 15 16 17 18 19 20 21 22 23 24 25
000
FTUS41 KGYX 222104 AAB
TAFCON
TAF AMD
KCON 222104Z 2221/2318 32005KT 3SM -SN BKN030 OVC050
      TEMPO 2221/2223 1/2SM SN BKN012 OVC030
     FM222300 VRB03KT P6SM SCT050 BKN100
     FM230200 00000KT P6SM SCT120
     FM231400 14004KT P6SM SCT120 BKN200=

USA.gov is the U.S. government's official web portal to all federal, state and local government web resources and services.